Time;durP1;ratioP1;P1;durP2;ratioP2;P2;SDS_P1;SDS_P2;PMS_P1;PMS_P2;Temp;Humidity;BMP_temperature;BMP_pressure;BME280_temperature;BME280_humidity;BME280_pressure;Samples;Min_cycle;Max_cycle;Signal;HPM_P1;HPM_P2
2021/09/23 00:00:52;;;;;;;66.55;19.73;;;;;;;8.29;84.15;99502.06;5050849;28;20063;-76
2021/09/23 00:05:54;;;;;;;74.97;21.85;;;;;;;8.34;84.03;99502.59;5050747;28;20040;-78
2021/09/23 00:08:23;;;;;;;72.60;21.25;;;;;;;8.35;83.59;99501.63;5034272;28;20064;-78
2021/09/23 00:10:49;;;;;;;77.28;23.15;;;;;;;8.32;83.99;99502.69;5050678;28;20274;-78
2021/09/23 00:13:15;;;;;;;87.78;23.23;;;;;;;8.30;84.30;99501.09;5050720;28;20045;-79
2021/09/23 00:15:43;;;;;;;79.20;22.98;;;;;;;8.25;84.58;99497.00;5018180;28;20102;-78
2021/09/23 00:18:16;;;;;;;94.28;23.58;;;;;;;8.31;84.49;99502.78;5050667;28;20068;-80
2021/09/23 00:20:46;;;;;;;104.18;25.20;;;;;;;8.37;84.42;99503.22;5017576;28;20040;-80
2021/09/23 00:23:13;;;;;;;81.97;23.23;;;;;;;8.40;nan;99495.09;5050645;28;20073;-80
2021/09/23 00:25:39;;;;;;;104.10;26.92;;;;;;;8.37;84.50;99505.00;5053331;28;20053;-77
2021/09/23 00:28:06;;;;;;;107.85;27.95;;;;;;;8.32;84.61;99501.84;5051818;28;20374;-77
2021/09/23 00:30:32;;;;;;;110.45;26.35;;;;;;;8.26;84.91;99509.25;5053538;28;20136;-79
2021/09/23 00:33:09;;;;;;;105.75;27.50;;;;;;;8.29;85.15;99507.31;5053101;28;20029;-78
2021/09/23 00:35:35;;;;;;;109.63;28.52;;;;;;;8.26;84.79;99501.34;5053087;28;20048;-78
2021/09/23 00:38:01;;;;;;;127.18;29.05;;;;;;;8.21;85.31;99507.88;5051627;28;20359;-77
2021/09/23 00:40:27;;;;;;;104.32;25.58;;;;;;;8.18;85.52;99513.38;5051983;28;20033;-78
2021/09/23 00:42:53;;;;;;;121.10;28.52;;;;;;;8.08;85.83;99506.09;5053827;28;20527;-80
2021/09/23 00:45:22;;;;;;;119.10;25.13;;;;;;;8.07;86.08;99507.06;5055614;28;20033;-77
2021/09/23 00:47:49;;;;;;;92.25;24.27;;;;;;;8.15;86.28;99516.19;5082145;28;20363;-81
2021/09/23 00:50:19;;;;;;;93.28;25.23;;;;;;;8.18;85.97;99506.28;5040004;28;20040;-75
2021/09/23 00:52:45;;;;;;;114.68;25.25;;;;;;;8.20;85.82;99507.03;5052066;28;20489;-77
2021/09/23 00:55:12;;;;;;;100.28;24.95;;;;;;;8.17;85.68;99499.34;5050338;28;20436;-77
2021/09/23 00:57:39;;;;;;;95.65;23.20;;;;;;;8.16;85.98;99489.78;5051206;28;20041;-75
2021/09/23 01:00:10;;;;;;;105.00;24.00;;;;;;;8.12;86.38;99480.38;5050904;28;20064;-78
2021/09/23 01:02:54;;;;;;;112.65;25.20;;;;;;;8.16;86.39;99483.63;5050897;28;20037;-79
2021/09/23 01:05:21;;;;;;;90.43;25.08;;;;;;;8.30;86.68;99478.25;5052144;28;20041;-76
2021/09/23 01:07:48;;;;;;;120.18;29.20;;;;;;;8.37;86.08;99481.28;5051693;28;20493;-78
2021/09/23 01:10:17;;;;;;;135.02;26.58;;;;;;;8.35;85.81;99483.16;5016750;28;20132;-75
2021/09/23 01:12:46;;;;;;;101.10;25.65;;;;;;;8.42;85.84;99487.94;5059714;28;20061;-76
2021/09/23 01:15:15;;;;;;;142.63;26.48;;;;;;;8.44;85.41;99479.91;5071520;28;20071;-76
2021/09/23 01:17:42;;;;;;;106.25;25.50;;;;;;;8.49;85.50;99480.44;5054207;28;20024;-76
2021/09/23 01:20:09;;;;;;;79.25;21.23;;;;;;;8.56;85.38;99468.50;5066944;28;20036;-77
2021/09/23 01:22:35;;;;;;;105.70;23.38;;;;;;;8.56;85.06;99473.78;5056881;28;20043;-78
2021/09/23 01:25:17;;;;;;;131.15;24.35;;;;;;;8.50;84.98;99468.94;5073690;28;20124;-76
2021/09/23 01:27:45;;;;;;;103.13;23.80;;;;;;;8.51;84.99;99467.16;5040811;28;20048;-77
2021/09/23 01:30:15;;;;;;;88.47;20.98;;;;;;;8.48;85.26;99462.94;5073246;28;20118;-77
2021/09/23 01:32:44;;;;;;;89.30;21.42;;;;;;;8.45;85.44;99465.78;5073278;28;20032;-84
2021/09/23 01:35:12;;;;;;;93.32;19.52;;;;;;;8.48;85.63;99465.56;5073596;28;20066;-81
2021/09/23 01:37:39;;;;;;;156.45;22.90;;;;;;;8.49;85.29;99467.25;5073948;28;20453;-79
2021/09/23 01:40:07;;;;;;;151.45;23.02;;;;;;;8.47;85.47;99463.06;5073167;28;20042;-77
2021/09/23 01:42:33;;;;;;;95.32;20.33;;;;;;;8.43;85.58;99459.75;5073799;28;20039;-78
2021/09/23 01:45:01;;;;;;;88.05;19.92;;;;;;;8.47;85.80;99455.97;5073727;28;20040;-79
2021/09/23 01:47:29;;;;;;;109.30;22.35;;;;;;;8.46;85.62;99453.44;5073717;28;20115;-78
2021/09/23 01:49:57;;;;;;;141.75;23.48;;;;;;;8.43;85.56;99444.78;5073914;28;20453;-79
2021/09/23 01:52:25;;;;;;;97.30;19.85;;;;;;;8.39;85.58;99450.41;5073761;28;20048;-77
2021/09/23 01:55:08;;;;;;;119.20;20.48;;;;;;;8.42;86.06;99444.91;5073858;28;20091;-79
2021/09/23 01:57:34;;;;;;;116.90;21.48;;;;;;;8.42;86.07;99444.91;5074030;28;20436;-82
2021/09/23 02:00:00;;;;;;;113.40;20.90;;;;;;;8.47;85.96;99445.44;5056849;28;20028;-77
2021/09/23 02:02:38;;;;;;;;;;;;;;;8.46;85.61;99442.88;5072854;28;20033;-79
2021/09/23 02:05:07;;;;;;;213.60;23.25;;;;;;;8.31;86.02;99453.59;5036461;28;19916;-80
2021/09/23 02:07:32;;;;;;;136.40;22.38;;;;;;;8.21;86.35;99442.88;5053429;28;20064;-79
2021/09/23 02:10:05;;;;;;;139.15;22.58;;;;;;;8.21;86.63;99440.22;5036888;28;20064;-78
2021/09/23 02:12:31;;;;;;;155.60;22.70;;;;;;;8.21;87.04;99432.31;5053621;28;20089;-77
2021/09/23 02:14:58;;;;;;;114.68;21.80;;;;;;;8.20;87.12;99422.72;5071694;28;20080;-82
2021/09/23 02:17:25;;;;;;;107.72;21.20;;;;;;;8.26;87.16;99421.44;5038593;28;20406;-79
2021/09/23 02:19:56;;;;;;;113.70;20.98;;;;;;;8.30;87.27;99427.34;5053796;28;20089;-79
2021/09/23 02:22:24;;;;;;;88.28;18.95;;;;;;;8.42;87.11;99429.94;5053854;28;20696;-79
2021/09/23 02:24:53;;;;;;;72.22;18.30;;;;;;;8.46;86.70;99430.59;5053434;28;20456;-77
2021/09/23 02:27:21;;;;;;;71.28;16.75;;;;;;;8.50;86.41;99426.78;5055352;28;20029;-79
2021/09/23 02:29:47;;;;;;;;;;;;;;;8.40;86.12;99429.19;5057828;28;20458;-80
2021/09/23 02:32:13;;;;;;;74.25;18.13;;;;;;;8.50;86.57;99429.41;5057842;28;19954;-79
2021/09/23 02:34:38;;;;;;;62.33;16.58;;;;;;;8.55;86.29;99429.91;5057215;28;20048;-80
2021/09/23 02:37:06;;;;;;;76.18;18.00;;;;;;;8.55;86.10;99424.66;5056994;28;20052;-81
2021/09/23 02:39:32;;;;;;;59.53;15.27;;;;;;;8.61;85.94;99422.50;5056857;28;20089;-77
2021/09/23 02:41:58;;;;;;;54.10;15.38;;;;;;;8.56;85.88;99423.69;5057430;28;20476;-82
2021/09/23 02:44:25;;;;;;;56.45;16.23;;;;;;;8.70;85.75;99432.41;5040561;28;20119;-80
2021/09/23 02:46:51;;;;;;;45.78;14.68;;;;;;;8.81;85.62;99421.91;5056709;28;20131;-76
2021/09/23 02:49:17;;;;;;;55.22;16.88;;;;;;;8.85;85.00;99430.44;5056952;28;20926;-79
2021/09/23 02:51:43;;;;;;;55.05;17.15;;;;;;;8.83;84.80;99427.88;5056816;28;20036;-76
2021/09/23 02:54:08;;;;;;;53.53;15.95;;;;;;;8.76;84.45;99442.50;5074119;28;20051;-77
2021/09/23 02:56:34;;;;;;;58.53;16.88;;;;;;;8.68;84.82;99439.56;5040328;28;20626;-77
2021/09/23 02:59:00;;;;;;;62.72;16.35;;;;;;;8.62;84.87;99434.75;5007351;28;20462;-78
2021/09/23 03:01:26;;;;;;;55.50;16.10;;;;;;;8.58;85.02;99447.31;5039731;28;20049;-76
2021/09/23 03:03:52;;;;;;;56.38;16.17;;;;;;;8.56;85.25;99444.78;5056547;28;20033;-76
2021/09/23 03:06:18;;;;;;;61.47;14.20;;;;;;;8.58;85.45;99445.53;5055980;28;20029;-78
2021/09/23 03:08:43;;;;;;;37.85;12.20;;;;;;;8.58;85.65;99449.94;5056541;28;20041;-75
2021/09/23 03:11:09;;;;;;;46.58;14.23;;;;;;;8.57;85.86;99448.25;5056102;28;20036;-78
2021/09/23 03:13:35;;;;;;;48.10;13.32;;;;;;;8.58;85.90;99450.81;5056492;28;20456;-77
2021/09/23 03:16:01;;;;;;;37.20;13.80;;;;;;;8.60;85.94;99431.38;5039630;28;20147;-79
2021/09/23 03:18:27;;;;;;;34.10;13.43;;;;;;;8.56;86.07;99428.13;5040198;28;20075;-76
2021/09/23 03:20:53;;;;;;;33.53;12.77;;;;;;;8.60;86.79;99436.63;5056728;28;20389;-76
2021/09/23 03:23:19;;;;;;;37.28;12.52;;;;;;;8.58;86.65;99434.97;5056144;28;20106;-76
2021/09/23 03:25:45;;;;;;;37.42;13.02;;;;;;;8.63;86.85;99425.88;5056114;28;20033;-79
2021/09/23 03:28:12;;;;;;;43.63;16.33;;;;;;;8.79;87.00;99423.81;5055962;28;20036;-77
2021/09/23 03:30:39;;;;;;;45.10;16.33;;;;;;;8.78;86.32;99423.91;5074346;28;20050;-74
2021/09/23 03:33:06;;;;;;;37.47;13.88;;;;;;;8.86;86.49;99417.13;5042647;28;20036;-76
2021/09/23 03:35:32;;;;;;;28.98;13.10;;;;;;;8.89;85.83;99410.78;5076928;28;20048;-75
2021/09/23 03:37:58;;;;;;;28.15;11.73;;;;;;;8.74;85.43;99410.13;5076134;28;20037;-80
2021/09/23 03:40:25;;;;;;;27.67;11.63;;;;;;;8.70;85.55;99413.94;5032466;28;20047;-77
2021/09/23 03:42:52;;;;;;;26.45;11.00;;;;;;;8.81;85.65;99414.00;5084214;28;20095;-80
2021/09/23 03:45:18;;;;;;;30.80;12.57;;;;;;;8.93;85.46;99411.41;5074191;28;20127;-75
2021/09/23 03:47:44;;;;;;;25.05;11.88;;;;;;;8.96;85.27;99416.44;5039185;28;20469;-78
2021/09/23 03:50:11;;;;;;;23.33;10.52;;;;;;;8.94;85.06;99408.63;5065142;28;20047;-79
2021/09/23 03:52:37;;;;;;;27.00;10.20;;;;;;;8.96;84.59;99405.88;5073939;28;20061;-77
2021/09/23 03:55:04;;;;;;;24.58;10.35;;;;;;;8.93;84.89;99411.41;5076433;28;20050;-79
2021/09/23 03:57:30;;;;;;;42.42;17.25;;;;;;;8.92;84.51;99407.06;5076078;28;20085;-77
2021/09/23 03:59:56;;;;;;;33.42;14.02;;;;;;;8.96;84.79;99412.00;5042758;28;20032;-76
2021/09/23 04:02:23;;;;;;;28.67;13.40;;;;;;;9.02;84.55;99410.69;5066487;28;20033;-78
2021/09/23 04:04:51;;;;;;;32.80;11.43;;;;;;;9.01;84.39;99409.00;5059149;28;20248;-79
2021/09/23 04:07:16;;;;;;;28.45;10.40;;;;;;;9.01;84.49;99398.44;5060422;28;20039;-80
2021/09/23 04:09:43;;;;;;;29.30;10.20;;;;;;;9.10;84.46;99403.06;5074024;28;20417;-77
2021/09/23 04:12:09;;;;;;;23.90;10.60;;;;;;;9.09;84.43;99405.81;5073919;28;20040;-77
2021/09/23 04:14:35;;;;;;;22.08;9.15;;;;;;;9.21;84.53;99397.81;5061350;28;20119;-77
2021/09/23 04:17:01;;;;;;;31.55;13.68;;;;;;;9.34;84.05;99407.44;5055776;28;20115;-82
2021/09/23 04:19:27;;;;;;;24.17;11.07;;;;;;;9.42;83.95;99397.13;5055606;28;20037;-84
2021/09/23 04:21:53;;;;;;;22.13;9.98;;;;;;;9.41;83.23;99405.16;5057246;28;20036;-78
2021/09/23 04:24:20;;;;;;;18.38;8.63;;;;;;;9.32;83.42;99396.13;5056993;28;20040;-79
2021/09/23 04:26:46;;;;;;;19.80;8.43;;;;;;;9.29;83.21;99393.75;5075822;28;20032;-81
2021/09/23 04:29:13;;;;;;;;;;;;;;;9.48;83.35;99396.66;5076472;28;20032;-77
2021/09/23 04:31:39;;;;;;;16.95;7.65;;;;;;;9.54;83.00;99395.34;5075948;28;20778;-77
2021/09/23 04:34:05;;;;;;;24.48;8.30;;;;;;;9.50;82.74;99392.09;5075262;28;20125;-77
2021/09/23 04:36:33;;;;;;;14.57;6.60;;;;;;;9.49;82.37;99403.59;5072559;28;20068;-82
2021/09/23 04:38:59;;;;;;;16.98;7.32;;;;;;;9.44;82.62;99394.38;5022236;28;20404;-80
2021/09/23 04:41:25;;;;;;;15.57;7.25;;;;;;;9.42;82.73;99391.84;5070725;28;20107;-80
2021/09/23 04:43:52;;;;;;;13.27;6.25;;;;;;;9.46;82.58;99389.78;5055713;28;20401;-77
2021/09/23 04:46:21;;;;;;;12.32;5.78;;;;;;;9.49;82.38;99379.84;5056969;28;20032;-80
2021/09/23 04:48:50;;;;;;;11.95;5.93;;;;;;;9.40;82.61;99383.19;5059676;28;20036;-79
2021/09/23 04:51:18;;;;;;;14.55;7.13;;;;;;;9.54;83.04;99383.00;5084448;28;20065;-77
2021/09/23 04:53:44;;;;;;;11.65;6.00;;;;;;;9.66;82.71;99378.53;5095434;28;20047;-75
2021/09/23 04:56:10;;;;;;;14.05;5.97;;;;;;;9.72;82.52;99393.06;5093238;28;20048;-77
2021/09/23 04:58:36;;;;;;;16.38;6.63;;;;;;;9.71;82.08;99391.38;5095135;28;20032;-79
2021/09/23 05:01:02;;;;;;;15.10;6.90;;;;;;;9.69;81.73;99393.31;5058821;28;20051;-78
2021/09/23 05:03:28;;;;;;;21.45;7.85;;;;;;;9.68;81.62;99402.19;5074169;28;20039;-78
2021/09/23 05:05:56;;;;;;;16.92;8.68;;;;;;;9.67;81.55;99395.22;5059590;28;20048;-78
2021/09/23 05:08:23;;;;;;;16.17;8.30;;;;;;;9.71;81.70;99388.75;5091973;28;20509;-78
2021/09/23 05:10:50;;;;;;;16.77;8.40;;;;;;;9.69;81.73;99388.88;5073952;28;20136;-78
2021/09/23 05:13:17;;;;;;;19.08;9.05;;;;;;;9.68;81.56;99402.19;5057943;28;20306;-81
2021/09/23 05:15:43;;;;;;;18.90;8.43;;;;;;;9.55;82.24;99387.28;5040035;28;20040;-77
2021/09/23 05:18:09;;;;;;;19.83;8.55;;;;;;;9.63;82.23;99394.63;5074499;28;20035;-77
2021/09/23 05:20:37;;;;;;;19.65;8.85;;;;;;;9.71;82.17;99396.66;5086823;28;20039;-80
2021/09/23 05:23:03;;;;;;;21.77;9.95;;;;;;;9.80;82.17;99380.09;5095201;28;20040;-83
2021/09/23 05:25:29;;;;;;;20.15;9.75;;;;;;;9.79;82.03;99386.31;5066039;28;20053;-82
2021/09/23 05:27:56;;;;;;;36.35;11.82;;;;;;;9.83;82.25;99385.16;5075970;28;20044;-79
2021/09/23 05:30:23;;;;;;;32.28;11.20;;;;;;;9.82;82.34;99380.81;5078585;28;20438;-78
2021/09/23 05:32:49;;;;;;;36.22;10.65;;;;;;;9.90;82.37;99380.22;5080345;28;20043;-77
2021/09/23 05:35:15;;;;;;;52.58;12.13;;;;;;;9.85;82.43;99391.13;5083548;28;20028;-82
2021/09/23 05:37:41;;;;;;;38.47;11.20;;;;;;;9.81;82.50;99391.50;5091837;28;20128;-79
2021/09/23 05:40:08;;;;;;;42.15;13.30;;;;;;;9.75;82.96;99389.34;5096060;28;20044;-78
2021/09/23 05:42:37;;;;;;;50.17;12.45;;;;;;;9.78;83.10;99386.47;5095529;28;20040;-83
2021/09/23 05:45:06;;;;;;;47.97;14.27;;;;;;;9.78;82.95;99397.88;5043328;28;20135;-82
2021/09/23 05:47:33;;;;;;;42.72;11.43;;;;;;;9.71;83.08;99402.78;5075576;28;20036;-79
2021/09/23 05:50:00;;;;;;;47.25;13.30;;;;;;;9.70;83.17;99402.91;5038442;28;20028;-81
2021/09/23 05:52:25;;;;;;;37.85;14.05;;;;;;;9.63;83.69;99406.97;5057879;28;20055;-79
2021/09/23 05:54:51;;;;;;;41.45;12.57;;;;;;;9.52;84.34;99398.09;5077156;28;20032;-80
2021/09/23 05:57:24;;;;;;;34.13;12.23;;;;;;;9.59;84.40;99402.91;5059815;28;20453;-80
2021/09/23 05:59:50;;;;;;;42.78;13.43;;;;;;;9.62;84.26;99394.72;5075303;28;20090;-79
2021/09/23 06:02:17;;;;;;;39.72;13.07;;;;;;;9.67;84.21;99389.94;5077117;28;20046;-78
2021/09/23 06:04:44;;;;;;;;;;;;;;;9.64;84.40;99392.81;5076189;28;20055;-80
2021/09/23 06:07:10;;;;;;;33.97;13.05;;;;;;;9.68;84.08;99388.97;5090843;28;19911;-78
2021/09/23 06:09:36;;;;;;;44.45;13.45;;;;;;;9.72;84.33;99387.78;5073608;28;20040;-80
2021/09/23 06:12:02;;;;;;;35.17;12.27;;;;;;;9.78;83.80;99389.97;5074528;28;20036;-81
2021/09/23 06:14:28;;;;;;;38.58;12.40;;;;;;;9.79;83.65;99388.13;5071425;28;20078;-80
2021/09/23 06:16:55;;;;;;;36.85;11.98;;;;;;;9.91;83.66;99387.19;5094588;28;20044;-79
2021/09/23 06:19:21;;;;;;;32.53;11.73;;;;;;;9.85;83.31;99398.22;5079015;28;20040;-79
2021/09/23 06:21:47;;;;;;;33.85;12.15;;;;;;;9.83;83.45;99400.13;5078119;28;20036;-79
2021/09/23 06:24:13;;;;;;;39.85;13.10;;;;;;;9.92;83.39;99402.06;5045584;28;20466;-79
2021/09/23 06:26:38;;;;;;;36.97;12.55;;;;;;;9.97;83.20;99401.69;5073351;28;20039;-81
2021/09/23 06:29:04;;;;;;;33.38;12.18;;;;;;;9.99;83.02;99397.13;5067577;28;20032;-80
2021/09/23 06:31:33;;;;;;;41.78;14.25;;;;;;;10.08;83.24;99393.78;5057893;28;20040;-83
2021/09/23 06:34:01;;;;;;;30.77;11.75;;;;;;;10.03;82.97;99393.28;5053239;28;20074;-80
2021/09/23 06:36:30;;;;;;;32.25;11.27;;;;;;;9.99;83.06;99391.84;5057809;28;20043;-78
2021/09/23 06:38:55;;;;;;;38.03;12.13;;;;;;;10.08;82.65;99385.84;5045980;28;20093;-78
2021/09/23 06:41:21;;;;;;;41.83;15.15;;;;;;;10.12;82.88;99387.28;5078370;28;20036;-79
2021/09/23 06:43:49;;;;;;;36.85;14.63;;;;;;;10.29;82.58;99385.06;5060368;28;20021;-82
2021/09/23 06:46:17;;;;;;;30.02;12.00;;;;;;;10.37;81.79;99380.06;5082750;28;20385;-82
2021/09/23 06:48:42;;;;;;;27.60;11.57;;;;;;;10.46;81.16;99381.94;5100981;28;20039;-82
2021/09/23 06:51:08;;;;;;;28.60;11.52;;;;;;;10.52;80.78;99385.88;5033816;28;20036;-81
2021/09/23 06:53:34;;;;;;;25.15;11.20;;;;;;;10.52;80.50;99385.88;5064554;28;20040;-81
2021/09/23 06:56:00;;;;;;;30.35;11.27;;;;;;;10.51;80.63;99387.69;5026179;28;20039;-80
2021/09/23 06:58:26;;;;;;;30.65;12.70;;;;;;;10.52;81.40;99384.06;5055128;28;20285;-80
2021/09/23 07:01:11;;;;;;;29.05;12.02;;;;;;;10.55;80.77;99367.13;5083250;28;20036;-81
2021/09/23 07:04:05;;;;;;;26.13;10.55;;;;;;;10.64;80.13;99362.88;5064415;28;20040;-82
2021/09/23 07:06:54;;;;;;;25.17;11.02;;;;;;;10.76;79.85;99371.63;5049175;28;20076;-82
2021/09/23 07:09:27;;;;;;;29.33;12.80;;;;;;;10.92;79.37;99382.59;5053722;28;20110;-80
2021/09/23 07:11:55;;;;;;;33.08;14.10;;;;;;;10.90;79.38;99384.50;5046623;28;20481;-79
2021/09/23 07:14:21;;;;;;;28.80;13.30;;;;;;;10.74;79.46;99384.97;5040219;28;20070;-84
2021/09/23 07:16:47;;;;;;;29.88;12.98;;;;;;;10.56;80.00;99378.56;5055664;28;20075;-83
2021/09/23 07:19:12;;;;;;;25.33;11.15;;;;;;;10.64;80.32;99381.38;5078603;28;20040;-78
2021/09/23 07:21:39;;;;;;;23.02;10.23;;;;;;;10.66;79.82;99380.28;5058938;28;20044;-80
2021/09/23 07:24:05;;;;;;;23.58;10.80;;;;;;;10.68;79.79;99382.84;5058045;28;20138;-82
2021/09/23 07:26:31;;;;;;;25.77;11.40;;;;;;;10.77;80.20;99374.13;5079932;28;20035;-79
2021/09/23 07:28:58;;;;;;;26.48;11.65;;;;;;;10.79;79.75;99377.50;5079060;28;20085;-80
2021/09/23 07:31:24;;;;;;;23.92;10.82;;;;;;;10.86;79.63;99371.69;5034478;28;20123;-80
2021/09/23 07:33:50;;;;;;;30.67;12.85;;;;;;;10.77;79.44;99374.13;5077658;28;20047;-78
2021/09/23 07:36:21;;;;;;;35.05;15.70;;;;;;;10.70;79.75;99377.41;5034303;28;20480;-79
2021/09/23 07:38:47;;;;;;;38.92;16.88;;;;;;;10.68;79.54;99369.63;5097222;28;20036;-79
2021/09/23 07:41:14;;;;;;;41.40;17.45;;;;;;;10.73;79.59;99366.56;5055544;28;20456;-79
2021/09/23 07:43:40;;;;;;;42.75;19.20;;;;;;;10.81;79.18;99369.41;5095658;28;20028;-82
2021/09/23 07:46:06;;;;;;;44.92;18.70;;;;;;;10.77;79.46;99368.84;5025507;28;20039;-79
2021/09/23 07:48:31;;;;;;;41.78;18.55;;;;;;;10.81;78.93;99370.25;5059727;28;20029;-80
2021/09/23 07:50:58;;;;;;;30.60;13.85;;;;;;;10.76;79.58;99372.44;5041885;28;20496;-79
2021/09/23 07:53:28;;;;;;;29.50;12.57;;;;;;;10.81;79.87;99372.91;5057842;28;20033;-81
2021/09/23 07:55:54;;;;;;;35.95;14.73;;;;;;;10.77;79.23;99363.53;5061270;28;20041;-80
2021/09/23 07:58:34;;;;;;;30.50;14.23;;;;;;;10.78;79.54;99365.22;5074929;28;20090;-78
2021/09/23 08:01:01;;;;;;;33.50;14.48;;;;;;;10.81;79.67;99359.66;5041030;28;20079;-78
2021/09/23 08:03:26;;;;;;;29.63;13.65;;;;;;;10.91;79.16;99361.56;5059862;28;20067;-78
2021/09/23 08:05:52;;;;;;;27.67;12.77;;;;;;;11.05;78.78;99355.94;5042614;28;20032;-79
2021/09/23 08:08:18;;;;;;;27.45;12.55;;;;;;;11.09;78.13;99349.44;5075086;28;20533;-78
2021/09/23 08:10:47;;;;;;;26.05;12.38;;;;;;;11.14;78.32;99343.72;5042968;28;20044;-83
2021/09/23 08:13:14;;;;;;;28.67;12.90;;;;;;;11.14;77.76;99355.16;5061464;28;20393;-82
2021/09/23 08:15:41;;;;;;;28.63;12.23;;;;;;;11.14;77.70;99349.88;5051733;28;20028;-84
2021/09/23 08:18:38;;;;;;;27.98;12.23;;;;;;;11.23;77.81;99353.56;5063259;28;20105;-81
2021/09/23 08:21:13;;;;;;;28.30;13.65;;;;;;;11.21;77.60;99349.34;5065258;28;20028;-81
2021/09/23 08:23:42;;;;;;;29.23;14.13;;;;;;;11.15;77.59;99348.91;5037149;28;20044;-81
2021/09/23 08:26:08;;;;;;;26.73;12.90;;;;;;;11.23;76.74;99347.44;5072276;28;20093;-82
2021/09/23 08:28:35;;;;;;;27.52;12.55;;;;;;;11.34;76.30;99334.09;5080246;28;20457;-81
2021/09/23 08:31:03;;;;;;;27.88;12.45;;;;;;;11.50;76.14;99333.59;5030591;28;20054;-80
2021/09/23 08:33:30;;;;;;;27.50;12.57;;;;;;;11.59;75.44;99331.97;5030716;28;20044;-83
2021/09/23 08:36:09;;;;;;;31.52;15.30;;;;;;;11.66;75.38;99330.47;5035559;28;20066;-79
2021/09/23 08:38:37;;;;;;;27.90;13.60;;;;;;;11.70;75.35;99334.53;5051217;28;20082;-81
2021/09/23 08:41:05;;;;;;;33.83;14.67;;;;;;;11.59;75.60;99332.81;5056257;28;21125;-85
2021/09/23 08:43:34;;;;;;;31.98;14.85;;;;;;;11.53;75.86;99333.34;5073534;28;20022;-81
2021/09/23 08:46:02;;;;;;;33.17;16.02;;;;;;;11.53;75.77;99333.34;5057994;28;20082;-83
2021/09/23 08:48:33;;;;;;;26.73;12.98;;;;;;;11.55;75.19;99330.56;5031869;28;20040;-84
2021/09/23 08:51:02;;;;;;;30.67;14.35;;;;;;;11.61;75.53;99319.44;5021158;28;20041;-85
2021/09/23 08:53:40;;;;;;;31.38;14.93;;;;;;;11.64;75.52;99329.78;5008951;28;20490;-83
2021/09/23 08:56:14;;;;;;;28.65;14.23;;;;;;;11.69;75.61;99322.25;5004712;28;20046;-83
2021/09/23 08:58:41;;;;;;;29.80;12.80;;;;;;;11.69;75.84;99321.41;4994933;28;20048;-82
2021/09/23 09:01:10;;;;;;;23.17;11.67;;;;;;;11.82;75.23;99325.53;4979274;28;20041;-82
2021/09/23 09:04:00;;;;;;;24.50;11.13;;;;;;;11.79;75.02;99330.25;5015344;28;20681;-78
2021/09/23 09:06:59;;;;;;;24.98;12.27;;;;;;;11.84;74.53;99319.22;5016518;28;20475;-80
2021/09/23 09:09:48;;;;;;;26.33;12.90;;;;;;;11.88;74.62;99321.47;5006320;28;20034;-82
2021/09/23 09:12:15;;;;;;;20.83;10.52;;;;;;;11.77;74.52;99317.09;4979458;28;20050;-79
2021/09/23 09:14:46;;;;;;;24.27;11.57;;;;;;;11.62;75.11;99321.94;5017603;28;20144;-78
2021/09/23 09:17:12;;;;;;;65.82;30.52;;;;;;;11.52;75.00;99321.06;4997687;28;20046;-79
2021/09/23 09:19:46;;;;;;;23.48;12.55;;;;;;;11.54;75.55;99323.56;5012913;28;20053;-76
2021/09/23 09:22:18;;;;;;;27.10;12.70;;;;;;;11.57;75.32;99329.44;5014060;28;20379;-78
2021/09/23 09:24:54;;;;;;;26.33;13.27;;;;;;;11.75;75.80;99321.72;5023092;28;20045;-81
2021/09/23 09:27:31;;;;;;;23.65;11.32;;;;;;;11.89;75.17;99317.03;5023794;28;20037;-80
2021/09/23 09:30:00;;;;;;;23.23;11.18;;;;;;;11.88;75.44;99321.47;5065042;28;20502;-80
2021/09/23 09:32:36;;;;;;;23.75;11.75;;;;;;;11.84;75.04;99316.56;5047389;28;20032;-82
2021/09/23 09:35:03;;;;;;;26.58;13.18;;;;;;;11.99;74.91;99309.97;5066529;28;20040;-81
2021/09/23 09:37:32;;;;;;;26.73;13.20;;;;;;;12.23;74.78;99300.78;5048053;28;20038;-79
2021/09/23 09:39:59;;;;;;;25.70;13.00;;;;;;;12.43;74.21;99304.28;5033074;28;20036;-80
2021/09/23 09:42:29;;;;;;;28.87;13.87;;;;;;;12.36;73.39;99298.69;5049242;28;20399;-80
2021/09/23 09:44:58;;;;;;;65.25;28.58;;;;;;;12.18;73.69;99305.66;5050185;28;20422;-79
2021/09/23 09:47:33;;;;;;;28.52;12.95;;;;;;;12.28;73.51;99299.38;5081688;28;20035;-81
2021/09/23 09:50:14;;;;;;;25.50;12.43;;;;;;;12.27;73.36;99307.47;5079585;28;20085;-80
2021/09/23 09:52:47;;;;;;;22.75;11.35;;;;;;;12.19;74.06;99300.22;5078262;28;20043;-78
2021/09/23 09:55:13;;;;;;;29.75;12.40;;;;;;;12.11;74.08;99300.91;5077848;28;20051;-75
2021/09/23 09:57:50;;;;;;;22.02;9.40;;;;;;;11.74;74.60;99296.19;5076378;28;20039;-78
2021/09/23 10:00:17;;;;;;;18.57;8.43;;;;;;;11.56;75.46;99297.81;5076453;28;20051;-78
2021/09/23 10:02:47;;;;;;;18.52;9.20;;;;;;;11.48;75.98;99294.00;5038442;28;20082;-78
2021/09/23 10:05:22;;;;;;;17.85;8.52;;;;;;;11.67;75.54;99291.59;5037837;28;20040;-80
2021/09/23 10:07:50;;;;;;;59.50;26.85;;;;;;;11.82;75.33;99295.50;5022589;28;20063;-78
2021/09/23 10:10:17;;;;;;;;;;;;;;;11.82;74.67;99296.38;5056944;28;20044;-78
2021/09/23 10:12:47;;;;;;;21.13;9.10;;;;;;;11.95;74.00;99292.59;5023289;28;19998;-83
2021/09/23 10:15:17;;;;;;;20.08;8.50;;;;;;;12.00;73.43;99286.94;5040280;28;20043;-81
2021/09/23 10:17:49;;;;;;;18.27;8.50;;;;;;;11.93;73.53;99286.63;5054899;28;20109;-80
2021/09/23 10:20:19;;;;;;;42.10;20.25;;;;;;;12.02;73.49;99280.50;5038309;28;20466;-79
2021/09/23 10:22:45;;;;;;;44.17;19.13;;;;;;;12.21;73.74;99289.47;5055215;28;20091;-80
2021/09/23 10:25:15;;;;;;;14.43;7.22;;;;;;;12.22;72.84;99288.50;5056078;28;20036;-80
2021/09/23 10:27:58;;;;;;;16.65;7.90;;;;;;;12.29;72.98;99282.50;5039197;28;20441;-79
2021/09/23 10:30:26;;;;;;;14.50;7.43;;;;;;;12.41;71.73;99290.31;5057625;28;20384;-80
2021/09/23 10:32:52;;;;;;;14.20;8.55;;;;;;;12.42;72.13;99282.22;5038491;28;20036;-83
2021/09/23 10:35:22;;;;;;;15.18;7.43;;;;;;;13.06;70.84;99279.03;5057408;28;20044;-81
2021/09/23 10:37:57;;;;;;;17.73;7.80;;;;;;;13.98;69.00;99274.75;5023852;28;20123;-81
2021/09/23 10:40:26;;;;;;;13.23;5.82;;;;;;;14.21;65.97;99275.13;5039234;28;20400;-81
2021/09/23 10:42:59;;;;;;;27.02;13.18;;;;;;;14.15;66.21;99269.56;5038793;28;20113;-81
2021/09/23 10:45:27;;;;;;;14.00;7.07;;;;;;;13.81;66.08;99270.22;5055575;28;20052;-80
2021/09/23 10:47:59;;;;;;;11.73;6.03;;;;;;;13.62;66.07;99272.00;5058719;28;20033;-81
2021/09/23 10:50:31;;;;;;;13.40;6.80;;;;;;;13.68;67.37;99274.06;5060167;28;20076;-79
2021/09/23 10:53:05;;;;;;;12.85;5.97;;;;;;;13.64;67.25;99274.50;5059654;28;20043;-80
2021/09/23 10:55:36;;;;;;;14.25;7.68;;;;;;;13.70;66.85;99265.94;5060281;28;20044;-78
2021/09/23 10:58:08;;;;;;;13.45;6.60;;;;;;;13.49;67.24;99269.69;5060168;28;20361;-79
2021/09/23 11:00:35;;;;;;;9.80;6.00;;;;;;;13.42;67.42;99266.78;5058964;28;20059;-80
2021/09/23 11:03:09;;;;;;;17.45;9.20;;;;;;;13.43;67.33;99271.13;5028181;28;20040;-80
2021/09/23 11:05:38;;;;;;;17.30;9.50;;;;;;;13.39;67.89;99264.41;5059591;28;20071;-77
2021/09/23 11:08:10;;;;;;;17.55;9.18;;;;;;;13.15;68.41;99266.75;5060790;28;20185;-80
2021/09/23 11:10:44;;;;;;;17.63;7.57;;;;;;;12.98;68.64;99269.13;5044820;28;20040;-81
2021/09/23 11:13:14;;;;;;;12.35;7.38;;;;;;;12.95;67.95;99256.16;5058280;28;20045;-82
2021/09/23 11:15:41;;;;;;;16.92;8.48;;;;;;;12.89;67.89;99262.06;5056175;28;20466;-79
2021/09/23 11:18:09;;;;;;;18.85;9.40;;;;;;;12.88;67.68;99260.38;5055908;28;20044;-79
2021/09/23 11:20:35;;;;;;;15.30;7.73;;;;;;;12.78;67.79;99258.59;5055284;28;20029;-79
2021/09/23 11:23:06;;;;;;;;;;;;;;;12.61;68.74;99259.28;5055654;28;20040;-81
2021/09/23 11:25:35;;;;;;;15.20;6.63;;;;;;;12.67;68.86;99257.91;5054597;28;19923;-82
2021/09/23 11:28:03;;;;;;;13.45;6.95;;;;;;;12.78;68.55;99255.94;5056382;28;20045;-83
2021/09/23 11:30:31;;;;;;;;;;;;;;;13.03;67.83;99247.47;5055218;28;20071;-78
2021/09/23 11:33:04;;;;;;;13.07;6.10;;;;;;;13.00;67.13;99253.09;5053879;28;19916;-80